Time;durP1;ratioP1;P1;durP2;ratioP2;P2;SDS_P1;SDS_P2;PMS_P1;PMS_P2;Temp;Humidity;BMP_temperature;BMP_pressure;BME280_temperature;BME280_humidity;BME280_pressure;Samples;Min_cycle;Max_cycle;Signal;HPM_P1;HPM_P2
2023/08/21 00:01:22;;;;;;;10.90;0.68;;;13.50;99.90;;;;;;4997638;28;20498;-75
2023/08/21 00:03:48;;;;;;;2.15;0.22;;;13.50;99.90;;;;;;4993758;28;20046;-76
2023/08/21 00:06:14;;;;;;;1.70;0.73;;;13.50;99.90;;;;;;4995386;28;20061;-78
2023/08/21 00:08:39;;;;;;;4.25;0.73;;;13.40;99.90;;;;;;4995493;28;20047;-77
2023/08/21 00:11:05;;;;;;;1.52;0.55;;;13.40;99.90;;;;;;4994075;28;20057;-76
2023/08/21 00:13:31;;;;;;;0.82;0.30;;;13.40;99.90;;;;;;4988033;28;20057;-78
2023/08/21 00:15:57;;;;;;;1.33;0.32;;;13.30;99.90;;;;;;4984166;28;20062;-78
2023/08/21 00:18:23;;;;;;;2.65;0.70;;;13.30;99.90;;;;;;4974963;28;20050;-76
2023/08/21 00:20:49;;;;;;;4.00;1.10;;;13.20;99.90;;;;;;4974919;28;20080;-77
2023/08/21 00:23:15;;;;;;;2.72;1.02;;;13.20;99.90;;;;;;4973597;28;20526;-79
2023/08/21 00:25:45;;;;;;;3.63;2.25;;;13.20;99.90;;;;;;4977513;28;20107;-77
2023/08/21 00:28:12;;;;;;;4.32;1.38;;;13.10;99.90;;;;;;4973701;28;20046;-76
2023/08/21 00:30:38;;;;;;;4.63;1.40;;;13.10;99.90;;;;;;4960055;28;20046;-77
2023/08/21 00:33:03;;;;;;;3.25;0.90;;;13.10;99.90;;;;;;4960784;28;20407;-77
2023/08/21 00:35:29;;;;;;;2.40;0.80;;;13.10;99.90;;;;;;4984044;28;20734;-79
2023/08/21 00:37:55;;;;;;;4.07;0.70;;;13.00;99.90;;;;;;4961495;28;20092;-79
2023/08/21 00:40:21;;;;;;;0.60;0.30;;;13.10;99.90;;;;;;4981192;28;20084;-79
2023/08/21 00:42:46;;;;;;;0.50;0.20;;;13.10;99.90;;;;;;4975818;28;20052;-78
2023/08/21 00:45:12;;;;;;;0.73;0.40;;;13.00;99.90;;;;;;4983820;28;20085;-77
2023/08/21 00:47:38;;;;;;;1.75;0.30;;;13.10;99.90;;;;;;4971001;28;20058;-79
2023/08/21 00:50:06;;;;;;;0.65;0.30;;;13.00;99.90;;;;;;4978177;28;20054;-78
2023/08/21 00:52:34;;;;;;;1.67;0.60;;;13.00;99.90;;;;;;4986228;28;20078;-77
2023/08/21 00:55:00;;;;;;;4.68;1.05;;;13.00;99.90;;;;;;4974585;28;20968;-79
2023/08/21 00:57:26;;;;;;;3.42;1.00;;;13.00;99.90;;;;;;4972558;28;20981;-77
2023/08/21 00:59:52;;;;;;;1.15;0.30;;;12.90;99.90;;;;;;4976893;28;20050;-77
2023/08/21 01:02:19;;;;;;;4.72;0.40;;;12.90;99.90;;;;;;4963157;28;20058;-76
2023/08/21 01:04:48;;;;;;;0.45;0.30;;;12.90;99.90;;;;;;4977355;28;20848;-77
2023/08/21 01:07:14;;;;;;;0.30;0.20;;;12.90;99.90;;;;;;4981768;28;20426;-76
2023/08/21 01:09:50;;;;;;;3.08;0.15;;;12.90;99.90;;;;;;4982465;28;20045;-76
2023/08/21 01:12:18;;;;;;;4.97;0.40;;;12.80;99.90;;;;;;4974772;28;20046;-76
2023/08/21 01:15:01;;;;;;;3.65;0.20;;;12.80;99.90;;;;;;4979693;28;20129;-77
2023/08/21 01:17:29;;;;;;;0.95;0.20;;;12.70;99.90;;;;;;4979460;28;20085;-76
2023/08/21 01:19:55;;;;;;;1.63;0.40;;;12.70;99.90;;;;;;4969572;28;20046;-76
2023/08/21 01:22:27;;;;;;;1.40;0.22;;;12.60;99.90;;;;;;4994219;28;20402;-76
2023/08/21 01:24:54;;;;;;;0.32;0.10;;;12.60;99.90;;;;;;4996862;28;20065;-76
2023/08/21 01:27:21;;;;;;;1.63;0.20;;;12.60;99.90;;;;;;4979908;28;20988;-76
2023/08/21 01:29:47;;;;;;;0.82;0.10;;;15.10;99.90;;;;;;4997776;28;20128;-76
2023/08/21 01:32:41;;;;;;;1.52;0.20;;;12.60;99.90;;;;;;4982318;28;20062;-76
2023/08/21 01:35:09;;;;;;;4.00;0.22;;;12.60;99.90;;;;;;4996212;28;20056;-76
2023/08/21 01:37:36;;;;;;;1.45;0.20;;;12.50;99.90;;;;;;4999020;28;20045;-76
2023/08/21 01:40:02;;;;;;;1.27;0.20;;;12.60;99.90;;;;;;4996866;28;20062;-76
2023/08/21 01:42:27;;;;;;;1.58;0.50;;;12.50;99.90;;;;;;4991841;28;20387;-76
2023/08/21 01:44:54;;;;;;;1.63;0.30;;;12.50;99.90;;;;;;4996774;28;20490;-77
2023/08/21 01:47:20;;;;;;;0.77;0.20;;;12.40;99.90;;;;;;4996245;28;20140;-76
2023/08/21 01:49:45;;;;;;;1.05;0.20;;;12.40;99.90;;;;;;4996394;28;20100;-76
2023/08/21 01:52:11;;;;;;;0.75;0.20;;;12.40;99.90;;;;;;4979496;28;20046;-77
2023/08/21 01:54:37;;;;;;;2.38;0.10;;;14.80;99.90;;;;;;4997785;28;20079;-76
2023/08/21 01:57:03;;;;;;;0.40;0.20;;;12.40;99.90;;;;;;4997003;28;20054;-76
2023/08/21 01:59:29;;;;;;;0.45;0.20;;;12.40;99.90;;;;;;4997854;28;20184;-78
2023/08/21 02:01:54;;;;;;;1.52;0.10;;;12.40;99.90;;;;;;4994357;28;20530;-77
2023/08/21 02:04:20;;;;;;;0.25;0.10;;;12.40;99.90;;;;;;4997166;28;20801;-76
2023/08/21 02:06:46;;;;;;;0.80;0.10;;;14.90;99.90;;;;;;4980544;28;20057;-77
2023/08/21 02:09:12;;;;;;;1.85;0.17;;;12.30;99.90;;;;;;4998613;28;20057;-75
2023/08/21 02:11:37;;;;;;;2.60;0.15;;;12.30;99.90;;;;;;4995597;28;20599;-80
2023/08/21 02:14:04;;;;;;;0.40;0.20;;;12.30;99.90;;;;;;4989949;28;20515;-79
2023/08/21 02:16:30;;;;;;;0.25;0.10;;;12.20;99.90;;;;;;4988576;28;20729;-77
2023/08/21 02:18:56;;;;;;;1.50;0.20;;;12.30;99.90;;;;;;4991913;28;20045;-79
2023/08/21 02:21:22;;;;;;;0.47;0.10;;;12.20;99.90;;;;;;4981448;28;20914;-79
2023/08/21 02:23:48;;;;;;;64.65;1.38;;;12.20;99.90;;;;;;4997522;28;20054;-77
2023/08/21 02:26:13;;;;;;;2.58;0.17;;;12.20;99.90;;;;;;4996429;28;20085;-80
2023/08/21 02:28:39;;;;;;;3.17;0.20;;;12.10;99.90;;;;;;4993454;28;20049;-79
2023/08/21 02:31:08;;;;;;;0.45;0.10;;;12.10;99.90;;;;;;4984020;28;20049;-79
2023/08/21 02:33:34;;;;;;;0.35;0.10;;;12.10;99.90;;;;;;4990688;28;20073;-77
2023/08/21 02:36:00;;;;;;;0.43;0.10;;;12.10;99.90;;;;;;4994151;28;20590;-78
2023/08/21 02:38:26;;;;;;;0.30;0.00;;;12.00;99.90;;;;;;4983858;28;20060;-80
2023/08/21 02:40:52;;;;;;;3.17;0.10;;;12.00;99.90;;;;;;4991506;28;20049;-77
2023/08/21 02:43:18;;;;;;;2.60;0.10;;;12.00;99.90;;;;;;4988691;28;20049;-77
2023/08/21 02:45:43;;;;;;;0.35;0.10;;;11.90;99.90;;;;;;5000406;28;20488;-81
2023/08/21 02:48:09;;;;;;;0.10;0.00;;;11.90;99.90;;;;;;4992953;28;20345;-80
2023/08/21 02:50:35;;;;;;;0.22;0.10;;;11.90;99.90;;;;;;4997956;28;20562;-76
2023/08/21 02:53:00;;;;;;;1.52;0.10;;;11.90;99.90;;;;;;4997896;28;20108;-79
2023/08/21 02:55:26;;;;;;;0.20;0.10;;;11.80;99.90;;;;;;5001436;28;20112;-80
2023/08/21 02:57:52;;;;;;;0.77;0.10;;;11.80;99.90;;;;;;4981688;28;20056;-79
2023/08/21 03:00:18;;;;;;;2.58;0.20;;;11.80;99.90;;;;;;4980761;28;20056;-76
2023/08/21 03:02:44;;;;;;;2.60;0.20;;;11.80;99.90;;;;;;5015021;28;20672;-79
2023/08/21 03:05:30;;;;;;;0.88;0.20;;;11.80;99.90;;;;;;5005071;28;20045;-78
2023/08/21 03:07:56;;;;;;;0.98;0.15;;;11.70;99.90;;;;;;4955658;28;20647;-79
2023/08/21 03:10:23;;;;;;;0.40;0.10;;;11.70;99.90;;;;;;4959740;28;20070;-78
2023/08/21 03:13:07;;;;;;;2.03;0.10;;;11.60;99.90;;;;;;4920485;28;20247;-78
2023/08/21 03:15:34;;;;;;;2.72;0.10;;;11.60;99.90;;;;;;4922706;28;20530;-78
2023/08/21 03:18:00;;;;;;;2.40;0.30;;;11.60;99.90;;;;;;4925166;28;20087;-80
2023/08/21 03:20:26;;;;;;;4.30;0.40;;;11.60;99.90;;;;;;4922569;29;20059;-78
2023/08/21 03:22:52;;;;;;;1.45;0.20;;;11.50;99.90;;;;;;4905635;29;20059;-80
2023/08/21 03:25:18;;;;;;;0.70;0.20;;;11.50;99.90;;;;;;4929756;29;20055;-79
2023/08/21 03:27:48;;;;;;;0.60;0.20;;;11.50;99.90;;;;;;4929347;28;20117;-78
2023/08/21 03:30:15;;;;;;;3.83;0.30;;;11.40;99.90;;;;;;4918658;29;20047;-78
2023/08/21 03:32:41;;;;;;;1.67;0.43;;;11.40;99.90;;;;;;4926126;28;20152;-78
2023/08/21 03:35:07;;;;;;;0.20;0.10;;;11.40;99.90;;;;;;4930494;29;20118;-78
2023/08/21 03:37:33;;;;;;;0.17;0.00;;;11.30;99.90;;;;;;4924067;28;20114;-78
2023/08/21 03:40:01;;;;;;;1.13;0.13;;;11.30;99.90;;;;;;4945987;28;20094;-79
2023/08/21 03:42:27;;;;;;;2.10;0.10;;;11.20;99.90;;;;;;4947355;28;20642;-78
2023/08/21 03:44:52;;;;;;;0.82;0.00;;;11.20;99.90;;;;;;4989743;28;20148;-78
2023/08/21 03:47:18;;;;;;;0.05;0.05;;;11.20;99.90;;;;;;5005199;28;20042;-79
2023/08/21 03:49:44;;;;;;;0.90;0.32;;;11.10;99.90;;;;;;4998509;28;20093;-79
2023/08/21 03:52:10;;;;;;;2.53;0.10;;;11.10;99.90;;;;;;4998350;28;20056;-79
2023/08/21 03:54:55;;;;;;;1.85;0.10;;;11.10;99.90;;;;;;4998317;28;20188;-78
2023/08/21 03:57:21;;;;;;;2.35;0.10;;;11.00;99.90;;;;;;4933746;29;20066;-78
2023/08/21 03:59:47;;;;;;;3.13;0.20;;;11.00;99.90;;;;;;4927937;28;20185;-78
2023/08/21 04:02:12;;;;;;;1.45;0.20;;;11.00;99.90;;;;;;4933872;29;20067;-79
2023/08/21 04:04:38;;;;;;;2.35;0.30;;;10.90;99.90;;;;;;4919117;28;20050;-78
2023/08/21 04:07:04;;;;;;;1.85;0.40;;;10.90;99.90;;;;;;4929102;28;20062;-79
2023/08/21 04:09:30;;;;;;;2.17;0.38;;;10.90;99.90;;;;;;4928018;29;20062;-79
2023/08/21 04:11:55;;;;;;;1.52;0.32;;;10.90;99.90;;;;;;4937284;28;20062;-78
2023/08/21 04:14:21;;;;;;;3.67;0.65;;;10.90;99.90;;;;;;4939056;28;20047;-78
2023/08/21 04:16:47;;;;;;;2.22;0.40;;;10.90;99.90;;;;;;4962729;28;20133;-78
2023/08/21 04:19:13;;;;;;;1.15;0.28;;;10.80;99.90;;;;;;4938914;28;20063;-78
2023/08/21 04:21:38;;;;;;;2.90;0.20;;;10.80;99.90;;;;;;4932742;28;20055;-77
2023/08/21 04:24:04;;;;;;;3.08;0.20;;;10.80;99.90;;;;;;4945849;28;20065;-77
2023/08/21 04:26:30;;;;;;;2.55;0.30;;;10.80;99.90;;;;;;4934271;28;20053;-76
2023/08/21 04:28:56;;;;;;;2.28;0.30;;;10.70;99.90;;;;;;4960672;28;20057;-77
2023/08/21 04:31:22;;;;;;;1.63;0.30;;;10.80;99.90;;;;;;4993583;28;20052;-77
2023/08/21 04:33:47;;;;;;;3.10;0.30;;;10.80;99.90;;;;;;4986085;28;20071;-78
2023/08/21 04:36:17;;;;;;;0.95;0.30;;;10.90;99.90;;;;;;5001410;28;20053;-77
2023/08/21 04:38:43;;;;;;;2.80;0.20;;;10.90;99.90;;;;;;5001479;28;20057;-77
2023/08/21 04:41:10;;;;;;;1.38;0.20;;;10.90;99.90;;;;;;4989570;28;20128;-77
2023/08/21 04:43:36;;;;;;;2.55;0.10;;;11.00;99.90;;;;;;5001498;28;20046;-77
2023/08/21 04:46:04;;;;;;;0.52;0.00;;;11.00;99.90;;;;;;5000124;28;20120;-77
2023/08/21 04:48:30;;;;;;;0.10;0.00;;;11.00;99.90;;;;;;4998190;28;20127;-76
2023/08/21 04:50:55;;;;;;;0.10;0.00;;;11.00;99.90;;;;;;4993205;28;20042;-77
2023/08/21 04:53:24;;;;;;;0.68;0.00;;;11.10;99.90;;;;;;4997683;28;20866;-76
2023/08/21 04:55:49;;;;;;;1.10;0.03;;;11.10;99.90;;;;;;4997084;28;20061;-76
2023/08/21 04:58:17;;;;;;;0.22;0.00;;;11.20;99.90;;;;;;4981985;28;20053;-77
2023/08/21 05:00:45;;;;;;;0.63;0.00;;;11.20;99.90;;;;;;4999963;28;20053;-76
2023/08/21 05:03:10;;;;;;;0.22;0.00;;;11.30;99.90;;;;;;5000692;28;20046;-76
2023/08/21 05:05:36;;;;;;;1.35;0.00;;;11.30;99.90;;;;;;5000126;28;20060;-76
2023/08/21 05:08:02;;;;;;;0.20;0.00;;;11.40;99.90;;;;;;5000027;28;20052;-76
2023/08/21 05:10:28;;;;;;;0.10;0.00;;;11.50;99.90;;;;;;5005470;28;20836;-76
2023/08/21 05:12:57;;;;;;;2.05;0.10;;;11.50;99.90;;;;;;5003440;28;20049;-76
2023/08/21 05:15:22;;;;;;;1.27;0.10;;;11.60;99.90;;;;;;5005450;28;20065;-77
2023/08/21 05:17:48;;;;;;;1.00;0.10;;;11.70;99.90;;;;;;5006525;28;20880;-76
2023/08/21 05:20:14;;;;;;;1.65;0.10;;;11.80;99.90;;;;;;5000053;28;20498;-76
2023/08/21 05:22:40;;;;;;;0.75;0.10;;;11.90;99.90;;;;;;5001801;28;20058;-76
2023/08/21 05:25:07;;;;;;;0.40;0.10;;;12.00;99.90;;;;;;5005282;28;20053;-76
2023/08/21 05:27:33;;;;;;;1.35;0.10;;;12.10;99.90;;;;;;4997341;28;20099;-76
2023/08/21 05:29:58;;;;;;;0.10;0.10;;;12.20;99.90;;;;;;4989317;28;20050;-76
2023/08/21 05:32:24;;;;;;;2.47;0.20;;;12.40;99.90;;;;;;4993181;28;20927;-76
2023/08/21 05:34:50;;;;;;;0.93;0.10;;;12.50;99.90;;;;;;4997550;28;20440;-76
2023/08/21 05:37:16;;;;;;;0.40;0.10;;;12.80;99.90;;;;;;5004442;28;20483;-77
2023/08/21 05:39:41;;;;;;;2.03;0.20;;;13.50;99.90;;;;;;5002123;28;20046;-77
2023/08/21 05:42:07;;;;;;;1.23;0.10;;;14.40;99.90;;;;;;5004298;28;20080;-76
2023/08/21 05:44:33;;;;;;;2.50;0.20;;;15.60;99.90;;;;;;4992093;28;20487;-77
2023/08/21 05:46:59;;;;;;;1.00;0.10;;;16.70;99.90;;;;;;5000621;28;20084;-77
2023/08/21 05:49:24;;;;;;;1.35;0.10;;;17.70;99.90;;;;;;4999930;28;20072;-76
2023/08/21 05:51:50;;;;;;;0.63;0.10;;;18.50;99.90;;;;;;5002859;28;20419;-76
2023/08/21 05:54:16;;;;;;;0.55;0.10;;;19.20;99.90;;;;;;4974901;28;20046;-79
2023/08/21 05:56:42;;;;;;;2.00;0.10;;;19.30;99.90;;;;;;4986960;28;20049;-78
2023/08/21 05:59:10;;;;;;;1.08;0.00;;;19.40;99.90;;;;;;4996370;28;20058;-76
2023/08/21 06:01:36;;;;;;;2.15;0.20;;;20.40;99.90;;;;;;4995614;28;20742;-78
2023/08/21 06:04:02;;;;;;;1.33;0.10;;;21.20;99.90;;;;;;4991300;28;20045;-79
2023/08/21 06:06:28;;;;;;;2.50;0.32;;;22.00;99.90;;;;;;5000271;28;20569;-80
2023/08/21 06:08:53;;;;;;;2.70;0.43;;;22.80;99.90;;;;;;5001403;28;20054;-78
2023/08/21 06:11:19;;;;;;;2.35;0.40;;;23.40;99.90;;;;;;4989975;28;20053;-78
2023/08/21 06:13:45;;;;;;;2.25;0.40;;;24.20;99.90;;;;;;5001256;28;20058;-79
2023/08/21 06:16:11;;;;;;;2.95;0.43;;;25.00;99.00;;;;;;5002979;28;20061;-80
2023/08/21 06:18:36;;;;;;;2.80;0.22;;;25.60;97.70;;;;;;5006624;28;20487;-78
2023/08/21 06:21:02;;;;;;;2.10;0.25;;;26.20;96.70;;;;;;5005646;28;20373;-78
2023/08/21 06:23:28;;;;;;;4.55;1.05;;;26.70;95.50;;;;;;5005361;28;20077;-80
2023/08/21 06:25:54;;;;;;;1.90;0.40;;;27.20;94.20;;;;;;4998533;28;20061;-78
2023/08/21 06:28:19;;;;;;;1.80;0.40;;;27.80;93.00;;;;;;5003288;28;20111;-78
2023/08/21 06:30:45;;;;;;;1.45;0.30;;;28.30;91.80;;;;;;4993230;28;20051;-77
2023/08/21 06:33:11;;;;;;;4.15;0.38;;;28.90;90.90;;;;;;4993048;28;20054;-80
2023/08/21 06:35:37;;;;;;;2.92;0.45;;;29.40;89.60;;;;;;4997960;28;20108;-79
2023/08/21 06:38:04;;;;;;;1.95;0.43;;;29.80;88.10;;;;;;4991922;23;20066;-79
2023/08/21 06:40:29;;;;;;;3.70;0.63;;;30.20;85.80;;;;;;4962823;28;20042;-78
2023/08/21 06:42:55;;;;;;;5.85;1.65;;;30.70;83.80;;;;;;4967427;28;20046;-79
2023/08/21 06:45:21;;;;;;;2.15;0.40;;;31.20;81.80;;;;;;4965504;28;20064;-79
2023/08/21 06:47:47;;;;;;;2.42;0.40;;;31.70;80.00;;;;;;4971193;28;20515;-78
2023/08/21 06:50:12;;;;;;;4.35;0.40;;;32.10;78.50;;;;;;4952952;28;20046;-81
2023/08/21 06:52:40;;;;;;;3.03;0.60;;;32.30;77.10;;;;;;4962839;28;20113;-80
2023/08/21 06:55:06;;;;;;;4.78;0.30;;;32.60;75.20;;;;;;4963128;28;20046;-82
2023/08/21 06:57:32;;;;;;;3.28;0.40;;;33.00;74.40;;;;;;4942720;28;20045;-79
2023/08/21 06:59:57;;;;;;;3.60;0.35;;;33.30;73.30;;;;;;4962115;28;20047;-81
2023/08/21 07:02:23;;;;;;;3.10;0.50;;;33.60;72.00;;;;;;4960663;28;20831;-80
2023/08/21 07:04:49;;;;;;;3.25;0.50;;;33.80;71.20;;;;;;4960089;28;20042;-77
2023/08/21 07:07:15;;;;;;;4.43;0.68;;;34.20;70.40;;;;;;4959726;28;20046;-79
2023/08/21 07:09:40;;;;;;;3.95;0.55;;;34.40;69.30;;;;;;4960915;28;20042;-79
2023/08/21 07:12:06;;;;;;;2.97;0.40;;;34.60;68.00;;;;;;4956906;28;20058;-78
2023/08/21 07:14:32;;;;;;;4.88;0.38;;;34.80;66.60;;;;;;4961145;28;20050;-78
2023/08/21 07:16:58;;;;;;;3.25;0.77;;;35.10;66.10;;;;;;4960617;28;20455;-77
2023/08/21 07:19:24;;;;;;;3.58;0.30;;;35.00;65.50;;;;;;4971797;28;20543;-76
2023/08/21 07:21:49;;;;;;;3.90;0.45;;;35.10;64.70;;;;;;4947949;28;20235;-76
2023/08/21 07:24:15;;;;;;;2.40;0.20;;;35.00;63.90;;;;;;4965137;28;20045;-76
2023/08/21 07:26:41;;;;;;;2.95;0.35;;;34.00;64.00;;;;;;4957924;28;20038;-76
2023/08/21 07:29:07;;;;;;;3.88;0.40;;;32.80;64.70;;;;;;4959716;28;20214;-76
2023/08/21 07:31:33;;;;;;;4.57;0.50;;;31.80;66.00;;;;;;4959068;28;20498;-75
2023/08/21 07:33:59;;;;;;;3.03;0.30;;;30.70;67.30;;;;;;4943570;28;20070;-75
2023/08/21 07:36:25;;;;;;;4.10;0.40;;;29.70;68.40;;;;;;4943864;28;20949;-77
2023/08/21 07:38:51;;;;;;;2.17;0.20;;;28.90;70.10;;;;;;4966343;28;20058;-76
2023/08/21 07:41:17;;;;;;;3.28;0.30;;;28.20;72.00;;;;;;4944707;28;20083;-77
2023/08/21 07:43:44;;;;;;;2.97;0.38;;;27.60;73.70;;;;;;4961197;28;20104;-75
2023/08/21 07:46:13;;;;;;;2.33;0.30;;;27.30;75.30;;;;;;4942288;28;20086;-74
2023/08/21 07:48:39;;;;;;;3.50;0.52;;;26.70;75.30;;;;;;4959758;28;20042;-76
2023/08/21 07:51:05;;;;;;;5.15;0.70;;;26.40;75.80;;;;;;4961543;28;20725;-75
2023/08/21 07:53:31;;;;;;;4.72;0.63;;;26.30;77.20;;;;;;4951722;28;20046;-71
2023/08/21 07:55:58;;;;;;;2.22;0.22;;;26.30;78.00;;;;;;4952882;28;20043;-73
2023/08/21 07:58:23;;;;;;;2.38;0.25;;;26.60;78.30;;;;;;4969980;23;20058;-73
2023/08/21 08:00:49;;;;;;;2.65;0.30;;;27.00;78.00;;;;;;4956096;28;20055;-73
2023/08/21 08:03:15;;;;;;;5.57;0.47;;;28.10;77.60;;;;;;4940759;28;20097;-74
2023/08/21 08:05:42;;;;;;;5.57;0.30;;;29.40;76.60;;;;;;4943906;28;20054;-74
2023/08/21 08:08:08;;;;;;;2.25;0.20;;;30.60;73.40;;;;;;4963419;28;20078;-74
2023/08/21 08:10:38;;;;;;;5.65;0.25;;;31.70;72.30;;;;;;4952239;28;20059;-73
2023/08/21 08:13:03;;;;;;;3.28;0.55;;;32.60;70.60;;;;;;4939068;28;20070;-75
2023/08/21 08:15:29;;;;;;;5.18;0.40;;;34.20;69.70;;;;;;4938930;28;20058;-73
2023/08/21 08:17:55;;;;;;;4.93;0.30;;;34.10;66.60;;;;;;4939882;28;20042;-73
2023/08/21 08:20:21;;;;;;;2.97;0.45;;;34.80;65.90;;;;;;4943375;28;20054;-74
2023/08/21 08:22:47;;;;;;;2.65;0.40;;;35.30;63.70;;;;;;4943740;28;20078;-75
2023/08/21 08:25:13;;;;;;;2.30;0.30;;;35.90;63.40;;;;;;4940717;28;20495;-75
2023/08/21 08:27:39;;;;;;;3.88;0.40;;;36.40;62.10;;;;;;4934121;28;20129;-77
2023/08/21 08:30:06;;;;;;;3.50;0.40;;;36.70;59.60;;;;;;4946066;28;20479;-75
2023/08/21 08:32:32;;;;;;;3.53;0.40;;;36.90;58.60;;;;;;4944224;28;20406;-75
2023/08/21 08:34:58;;;;;;;4.30;0.73;;;37.00;57.80;;;;;;4944739;28;20818;-75
2023/08/21 08:37:23;;;;;;;2.22;0.50;;;37.00;57.40;;;;;;4922373;28;20448;-74
2023/08/21 08:39:49;;;;;;;3.70;0.30;;;37.30;57.30;;;;;;4939726;28;20065;-75
2023/08/21 08:42:15;;;;;;;3.10;0.52;;;37.40;56.90;;;;;;4940522;28;20066;-75
2023/08/21 08:44:43;;;;;;;1.70;0.20;;;37.70;55.20;;;;;;4940720;28;20138;-75
2023/08/21 08:47:12;;;;;;;3.53;0.40;;;38.00;53.80;;;;;;4941414;23;20069;-76
2023/08/21 08:49:38;;;;;;;5.90;0.40;;;38.20;53.80;;;;;;4978668;28;20050;-74
2023/08/21 08:52:04;;;;;;;3.58;0.30;;;38.30;53.80;;;;;;4991410;28;20385;-75
2023/08/21 08:54:31;;;;;;;3.72;0.52;;;38.30;53.90;;;;;;4983076;28;20055;-75
2023/08/21 08:56:58;;;;;;;2.17;0.20;;;38.40;52.50;;;;;;4955974;28;20125;-76
2023/08/21 08:59:24;;;;;;;2.28;0.20;;;38.40;53.00;;;;;;4981951;28;20061;-74
2023/08/21 09:01:50;;;;;;;3.90;0.28;;;38.30;53.80;;;;;;4960091;28;20825;-74
2023/08/21 09:04:16;;;;;;;1.73;0.40;;;38.30;52.00;;;;;;4968513;28;20105;-76
2023/08/21 09:06:42;;;;;;;3.88;0.43;;;38.10;51.80;;;;;;4972937;28;20076;-74
2023/08/21 09:09:10;;;;;;;1.95;0.20;;;38.20;51.70;;;;;;4972036;28;20680;-75
2023/08/21 09:11:42;;;;;;;3.65;1.00;;;38.20;51.30;;;;;;4976947;28;20722;-75
2023/08/21 09:14:08;;;;;;;2.00;0.20;;;38.10;50.50;;;;;;4959359;28;20070;-75
2023/08/21 09:16:33;;;;;;;1.38;0.20;;;38.20;51.20;;;;;;4996443;28;20065;-75
2023/08/21 09:18:59;;;;;;;1.90;0.20;;;38.10;51.20;;;;;;4978391;28;20986;-75
2023/08/21 09:21:27;;;;;;;5.28;0.57;;;38.10;51.20;;;;;;4964641;28;20054;-76
2023/08/21 09:24:02;;;;;;;3.03;0.50;;;38.20;51.90;;;;;;4979920;28;20057;-78
2023/08/21 09:26:32;;;;;;;1.73;0.20;;;38.20;50.90;;;;;;4963424;28;20092;-79
2023/08/21 09:29:00;;;;;;;2.85;0.30;;;38.20;50.40;;;;;;4973893;28;20058;-73
2023/08/21 09:31:33;;;;;;;4.28;0.38;;;38.20;49.80;;;;;;4973970;28;20111;-76
2023/08/21 09:34:01;;;;;;;1.67;0.20;;;38.20;50.80;;;;;;4980036;28;20132;-75
2023/08/21 09:36:29;;;;;;;3.30;0.20;;;38.10;49.90;;;;;;4973681;28;20098;-77
2023/08/21 09:38:55;;;;;;;2.70;0.20;;;38.00;49.90;;;;;;4974207;28;20146;-74
2023/08/21 09:41:21;;;;;;;2.58;0.20;;;36.10;49.60;;;;;;4955731;28;20042;-72
2023/08/21 09:43:47;;;;;;;2.08;0.20;;;37.80;50.00;;;;;;4972685;28;20105;-73
2023/08/21 09:46:17;;;;;;;1.63;0.20;;;37.70;50.60;;;;;;4978559;28;20050;-75
2023/08/21 09:48:47;;;;;;;2.45;0.20;;;37.50;48.80;;;;;;4983684;28;20058;-73
2023/08/21 09:51:13;;;;;;;4.57;0.30;;;37.30;50.60;;;;;;4961003;28;20559;-79
2023/08/21 09:53:40;;;;;;;1.98;0.22;;;37.30;51.00;;;;;;4977291;28;20099;-77
2023/08/21 09:56:08;;;;;;;1.23;0.10;;;37.20;51.70;;;;;;4960946;28;20047;-78
2023/08/21 09:58:35;;;;;;;2.20;0.20;;;37.20;50.70;;;;;;4979544;28;20050;-75
2023/08/21 10:01:11;;;;;;;3.85;0.20;;;37.10;51.50;;;;;;4982016;28;20050;-77
2023/08/21 10:03:41;;;;;;;2.60;0.25;;;37.10;50.70;;;;;;4976739;28;20070;-79
2023/08/21 10:06:10;;;;;;;2.22;0.17;;;37.00;49.80;;;;;;4983235;28;20141;-77
2023/08/21 10:08:40;;;;;;;1.55;0.30;;;36.90;51.80;;;;;;4973041;28;20058;-78
2023/08/21 10:11:08;;;;;;;2.03;0.20;;;36.80;52.50;;;;;;4976692;28;20137;-76
2023/08/21 10:13:36;;;;;;;1.25;0.15;;;36.50;50.90;;;;;;4978039;28;20666;-78
2023/08/21 10:16:03;;;;;;;3.47;0.32;;;36.30;51.80;;;;;;4961085;28;20050;-79
2023/08/21 10:18:34;;;;;;;2.25;0.10;;;36.30;51.60;;;;;;4976785;28;20162;-78
2023/08/21 10:21:20;;;;;;;2.40;0.25;;;36.20;51.70;;;;;;4983730;28;20453;-75
2023/08/21 10:23:51;;;;;;;2.35;0.47;;;36.00;52.30;;;;;;4970435;28;20050;-80
2023/08/21 10:26:22;;;;;;;3.08;0.15;;;35.90;51.80;;;;;;4978356;28;20098;-78
2023/08/21 10:28:51;;;;;;;1.40;0.10;;;35.90;51.80;;;;;;4966468;28;20589;-74
2023/08/21 10:31:31;;;;;;;1.67;0.20;;;35.90;50.70;;;;;;4980155;28;20069;-76
2023/08/21 10:33:58;;;;;;;2.30;0.38;;;35.90;49.50;;;;;;4960469;28;20072;-75
2023/08/21 10:36:42;;;;;;;5.90;0.68;;;35.80;51.30;;;;;;4958071;28;20055;-78
2023/08/21 10:39:25;;;;;;;2.55;0.10;;;35.70;50.40;;;;;;4959315;28;20078;-72
2023/08/21 10:41:56;;;;;;;1.80;0.10;;;35.60;50.70;;;;;;4992232;28;20856;-74
2023/08/21 10:44:57;;;;;;;1.65;0.60;;;35.50;51.30;;;;;;4975215;28;20050;-76
2023/08/21 10:47:26;;;;;;;3.47;0.20;;;35.40;49.50;;;;;;4978456;28;20058;-74
2023/08/21 10:49:57;;;;;;;2.20;0.15;;;35.00;50.80;;;;;;4959831;28;20692;-76
2023/08/21 10:52:37;;;;;;;3.55;0.10;;;34.50;50.70;;;;;;4960062;28;20050;-78
2023/08/21 10:55:04;;;;;;;1.87;0.20;;;33.90;50.60;;;;;;4980272;28;20133;-80
2023/08/21 10:57:32;;;;;;;2.40;0.10;;;33.40;50.30;;;;;;4958674;28;20054;-74
2023/08/21 11:00:01;;;;;;;2.05;0.20;;;32.90;51.10;;;;;;4976295;28;20053;-79
2023/08/21 11:02:31;;;;;;;1.98;0.20;;;32.50;52.70;;;;;;4959437;28;20042;-73
2023/08/21 11:04:59;;;;;;;2.05;0.20;;;32.00;54.80;;;;;;4972726;28;20077;-76
2023/08/21 11:07:27;;;;;;;2.45;0.20;;;31.60;56.20;;;;;;4975199;28;20618;-76
2023/08/21 11:09:52;;;;;;;1.00;0.10;;;31.20;57.10;;;;;;4976213;28;20045;-76
2023/08/21 11:12:21;;;;;;;1.27;0.20;;;30.90;57.70;;;;;;4973996;28;20704;-77
2023/08/21 11:14:47;;;;;;;3.17;0.93;;;30.40;59.80;;;;;;4976437;28;20046;-75
2023/08/21 11:17:13;;;;;;;2.58;0.20;;;30.00;60.50;;;;;;4960184;28;20042;-75
2023/08/21 11:19:40;;;;;;;4.47;0.38;;;29.70;60.60;;;;;;4975885;28;20054;-80
2023/08/21 11:22:06;;;;;;;3.42;0.50;;;29.50;60.70;;;;;;4977684;28;20546;-76
2023/08/21 11:24:41;;;;;;;2.78;0.35;;;29.20;61.20;;;;;;4974407;28;20049;-78
2023/08/21 11:27:12;;;;;;;4.03;0.45;;;29.00;61.10;;;;;;4971595;28;20657;-76
2023/08/21 11:29:42;;;;;;;4.60;0.32;;;28.80;61.80;;;;;;4975153;28;20137;-76
2023/08/21 11:32:21;;;;;;;4.10;0.30;;;28.60;60.80;;;;;;4963792;28;20131;-77
2023/08/21 11:34:57;;;;;;;4.28;0.80;;;28.50;60.50;;;;;;4956812;28;20057;-80
2023/08/21 11:37:26;;;;;;;1.73;0.13;;;28.30;61.70;;;;;;4969895;28;20416;-76
2023/08/21 11:39:57;;;;;;;1.42;0.20;;;28.10;64.00;;;;;;4973701;28;20054;-75
2023/08/21 11:42:31;;;;;;;2.03;0.20;;;27.90;64.80;;;;;;4963294;28;20057;-79
2023/08/21 11:44:58;;;;;;;1.42;0.13;;;27.80;65.20;;;;;;4964555;28;20057;-74
2023/08/21 11:47:33;;;;;;;3.25;0.45;;;27.70;65.90;;;;;;4973264;28;20105;-72
2023/08/21 11:50:07;;;;;;;5.05;0.40;;;27.60;65.90;;;;;;4958714;28;20066;-76
2023/08/21 11:52:35;;;;;;;3.03;0.20;;;27.50;64.90;;;;;;4974167;28;20909;-77
2023/08/21 11:55:01;;;;;;;4.47;0.40;;;27.30;65.50;;;;;;4976644;28;20046;-77
2023/08/21 11:57:29;;;;;;;3.47;0.47;;;27.10;66.30;;;;;;4975935;28;20046;-74
2023/08/21 11:59:55;;;;;;;5.45;0.60;;;26.90;67.40;;;;;;4982101;28;20112;-75
2023/08/21 12:02:22;;;;;;;2.75;0.30;;;26.70;68.00;;;;;;4969640;28;20042;-77
2023/08/21 12:05:02;;;;;;;1.70;0.10;;;26.40;69.10;;;;;;4979163;28;20112;-78
2023/08/21 12:07:28;;;;;;;2.13;0.30;;;26.20;70.10;;;;;;4968940;28;20061;-84
2023/08/21 12:09:53;;;;;;;2.22;0.40;;;26.10;70.70;;;;;;4983570;28;20045;-76
2023/08/21 12:12:19;;;;;;;2.10;0.30;;;26.30;71.40;;;;;;4979187;28;20050;-79
2023/08/21 12:14:46;;;;;;;1.52;0.30;;;25.90;70.50;;;;;;4980947;28;20077;-78
2023/08/21 12:17:12;;;;;;;2.97;0.40;;;25.80;71.50;;;;;;4976196;28;20282;-75
2023/08/21 12:19:38;;;;;;;2.13;0.28;;;25.70;73.00;;;;;;4958978;28;20152;-78
2023/08/21 12:22:04;;;;;;;1.85;0.20;;;25.70;73.10;;;;;;4975055;28;20042;-74
2023/08/21 12:24:31;;;;;;;1.83;0.20;;;25.60;73.50;;;;;;4978732;28;20050;-78
2023/08/21 12:26:58;;;;;;;2.20;0.28;;;25.40;74.50;;;;;;4981366;28;20057;-75
2023/08/21 12:29:24;;;;;;;2.65;0.30;;;25.30;74.80;;;;;;4977284;28;20050;-78
2023/08/21 12:31:49;;;;;;;1.50;0.50;;;25.20;75.30;;;;;;4978675;28;20052;-76
2023/08/21 12:34:15;;;;;;;3.35;0.32;;;25.20;74.70;;;;;;4976572;28;20133;-78
2023/08/21 12:36:41;;;;;;;2.65;0.40;;;25.10;73.40;;;;;;4975213;28;20054;-76
2023/08/21 12:39:07;;;;;;;4.20;0.30;;;25.10;72.30;;;;;;4979545;28;20593;-77
2023/08/21 12:41:33;;;;;;;1.63;0.20;;;25.10;72.30;;;;;;4965636;28;20046;-80
2023/08/21 12:44:00;;;;;;;4.40;0.50;;;25.00;74.50;;;;;;4977292;28;20050;-80
2023/08/21 12:46:27;;;;;;;2.17;0.22;;;25.00;75.10;;;;;;4976331;28;20069;-75
2023/08/21 12:48:54;;;;;;;4.28;0.40;;;24.90;76.40;;;;;;4927559;28;20788;-81